sensor_id;sensor_type;location;lat;lon;timestamp;temperature;humidity
52709;DHT22;38606;52.986;6.980;2022-12-15T00:00:13;-4.10;99.90
52709;DHT22;38606;52.986;6.980;2022-12-15T00:03:03;-4.00;99.90
52709;DHT22;38606;52.986;6.980;2022-12-15T00:38:46;-3.70;99.90
52709;DHT22;38606;52.986;6.980;2022-12-15T00:41:14;-3.70;99.90
52709;DHT22;38606;52.986;6.980;2022-12-15T00:51:18;-3.60;99.90
52709;DHT22;38606;52.986;6.980;2022-12-15T00:53:45;-3.50;99.90
52709;DHT22;38606;52.986;6.980;2022-12-15T00:56:30;-3.50;99.90
52709;DHT22;38606;52.986;6.980;2022-12-15T00:59:15;-3.30;99.90
52709;DHT22;38606;52.986;6.980;2022-12-15T01:10:14;-3.20;99.90
52709;DHT22;38606;52.986;6.980;2022-12-15T01:26:07;-3.30;99.90
52709;DHT22;38606;52.986;6.980;2022-12-15T01:36:09;-3.40;99.90
52709;DHT22;38606;52.986;6.980;2022-12-15T01:41:04;-3.30;99.90
52709;DHT22;38606;52.986;6.980;2022-12-15T01:43:34;-3.30;99.90
52709;DHT22;38606;52.986;6.980;2022-12-15T01:46:11;-3.30;99.90
52709;DHT22;38606;52.986;6.980;2022-12-15T01:51:34;-3.40;99.90
52709;DHT22;38606;52.986;6.980;2022-12-15T01:54:09;-3.40;99.90
52709;DHT22;38606;52.986;6.980;2022-12-15T01:56:45;-3.30;99.90
52709;DHT22;38606;52.986;6.980;2022-12-15T01:59:25;-3.50;99.90
52709;DHT22;38606;52.986;6.980;2022-12-15T02:04:21;-3.40;99.90
52709;DHT22;38606;52.986;6.980;2022-12-15T02:09:13;-3.40;99.90
52709;DHT22;38606;52.986;6.980;2022-12-15T02:14:38;-3.70;99.90
52709;DHT22;38606;52.986;6.980;2022-12-15T02:23:17;-3.50;99.90
52709;DHT22;38606;52.986;6.980;2022-12-15T02:29:15;-3.50;99.90
52709;DHT22;38606;52.986;6.980;2022-12-15T02:31:41;-3.50;99.90
52709;DHT22;38606;52.986;6.980;2022-12-15T02:36:45;-3.40;99.90
52709;DHT22;38606;52.986;6.980;2022-12-15T02:39:12;-3.50;99.90
52709;DHT22;38606;52.986;6.980;2022-12-15T02:50:15;-3.40;99.90
52709;DHT22;38606;52.986;6.980;2022-12-15T02:52:59;-3.60;99.90
52709;DHT22;38606;52.986;6.980;2022-12-15T02:55:36;-3.60;99.90
52709;DHT22;38606;52.986;6.980;2022-12-15T02:58:12;-3.60;99.90
52709;DHT22;38606;52.986;6.980;2022-12-15T03:00:44;-3.40;99.90
52709;DHT22;38606;52.986;6.980;2022-12-15T03:03:12;-3.60;99.90
52709;DHT22;38606;52.986;6.980;2022-12-15T03:05:50;-3.60;99.90
52709;DHT22;38606;52.986;6.980;2022-12-15T03:08:19;-3.50;99.90
52709;DHT22;38606;52.986;6.980;2022-12-15T03:15:38;-3.50;99.90
52709;DHT22;38606;52.986;6.980;2022-12-15T03:25:22;-3.60;99.90
52709;DHT22;38606;52.986;6.980;2022-12-15T03:35:07;-3.40;99.90
52709;DHT22;38606;52.986;6.980;2022-12-15T03:37:32;-3.60;99.90
52709;DHT22;38606;52.986;6.980;2022-12-15T04:04:37;-3.50;99.90
52709;DHT22;38606;52.986;6.980;2022-12-15T04:19:13;-3.50;99.90
52709;DHT22;38606;52.986;6.980;2022-12-15T04:24:26;-3.30;99.90
52709;DHT22;38606;52.986;6.980;2022-12-15T04:54:38;-3.30;99.90
52709;DHT22;38606;52.986;6.980;2022-12-15T05:00:08;-3.30;99.90
52709;DHT22;38606;52.986;6.980;2022-12-15T05:30:19;-3.20;99.90
52709;DHT22;38606;52.986;6.980;2022-12-15T05:33:04;-3.30;99.90
52709;DHT22;38606;52.986;6.980;2022-12-15T05:35:30;-3.20;99.90
52709;DHT22;38606;52.986;6.980;2022-12-15T05:40:22;-3.20;99.90
52709;DHT22;38606;52.986;6.980;2022-12-15T05:52:32;-2.90;99.90
52709;DHT22;38606;52.986;6.980;2022-12-15T06:09:34;-3.10;99.90
52709;DHT22;38606;52.986;6.980;2022-12-15T06:24:10;-3.00;99.90
52709;DHT22;38606;52.986;6.980;2022-12-15T06:26:38;-3.10;99.90
52709;DHT22;38606;52.986;6.980;2022-12-15T06:29:06;-3.00;99.90
52709;DHT22;38606;52.986;6.980;2022-12-15T06:31:34;-3.10;99.90
52709;DHT22;38606;52.986;6.980;2022-12-15T06:34:03;-3.10;99.90
52709;DHT22;38606;52.986;6.980;2022-12-15T06:39:00;-3.10;99.90
52709;DHT22;38606;52.986;6.980;2022-12-15T06:41:26;-3.10;99.90
52709;DHT22;38606;52.986;6.980;2022-12-15T06:48:47;-3.30;99.90
52709;DHT22;38606;52.986;6.980;2022-12-15T06:51:14;-3.20;99.90
52709;DHT22;38606;52.986;6.980;2022-12-15T06:53:41;-3.30;99.90
52709;DHT22;38606;52.986;6.980;2022-12-15T06:56:19;-3.20;99.90
52709;DHT22;38606;52.986;6.980;2022-12-15T06:58:49;-3.30;99.90
52709;DHT22;38606;52.986;6.980;2022-12-15T07:01:16;-3.30;99.90
52709;DHT22;38606;52.986;6.980;2022-12-15T07:03:42;-3.20;99.90
52709;DHT22;38606;52.986;6.980;2022-12-15T07:06:10;-3.30;99.90
52709;DHT22;38606;52.986;6.980;2022-12-15T07:11:03;-3.50;99.90
52709;DHT22;38606;52.986;6.980;2022-12-15T07:16:01;-3.30;99.90
52709;DHT22;38606;52.986;6.980;2022-12-15T07:18:28;-3.30;99.90
52709;DHT22;38606;52.986;6.980;2022-12-15T07:20:55;-3.30;99.90
52709;DHT22;38606;52.986;6.980;2022-12-15T07:37:58;-3.30;99.90
52709;DHT22;38606;52.986;6.980;2022-12-15T07:40:24;-3.30;99.90
52709;DHT22;38606;52.986;6.980;2022-12-15T07:42:50;-3.10;99.90
52709;DHT22;38606;52.986;6.980;2022-12-15T07:52:34;-3.30;99.90
52709;DHT22;38606;52.986;6.980;2022-12-15T08:02:18;-3.20;99.90
52709;DHT22;38606;52.986;6.980;2022-12-15T08:04:43;-3.30;99.90
52709;DHT22;38606;52.986;6.980;2022-12-15T08:07:09;-3.20;99.90
52709;DHT22;38606;52.986;6.980;2022-12-15T08:12:02;-3.30;99.90
52709;DHT22;38606;52.986;6.980;2022-12-15T08:21:46;-3.20;99.90
52709;DHT22;38606;52.986;6.980;2022-12-15T08:24:13;-2.90;99.90
52709;DHT22;38606;52.986;6.980;2022-12-15T08:26:40;-3.00;99.90
52709;DHT22;38606;52.986;6.980;2022-12-15T08:29:09;-2.90;99.90
52709;DHT22;38606;52.986;6.980;2022-12-15T08:34:03;-2.90;99.90
52709;DHT22;38606;52.986;6.980;2022-12-15T08:36:29;-2.90;99.90
52709;DHT22;38606;52.986;6.980;2022-12-15T08:38:56;-2.90;99.90
52709;DHT22;38606;52.986;6.980;2022-12-15T08:41:28;-2.90;99.90
52709;DHT22;38606;52.986;6.980;2022-12-15T08:43:55;-2.90;99.90
52709;DHT22;38606;52.986;6.980;2022-12-15T08:46:23;-2.70;99.90
52709;DHT22;38606;52.986;6.980;2022-12-15T08:51:18;-2.60;99.90
52709;DHT22;38606;52.986;6.980;2022-12-15T08:56:12;-2.60;99.90
52709;DHT22;38606;52.986;6.980;2022-12-15T09:01:07;-2.50;99.90
52709;DHT22;38606;52.986;6.980;2022-12-15T09:03:34;-2.50;99.90
52709;DHT22;38606;52.986;6.980;2022-12-15T09:06:10;-2.40;99.90
52709;DHT22;38606;52.986;6.980;2022-12-15T09:13:32;-2.40;99.90
52709;DHT22;38606;52.986;6.980;2022-12-15T09:16:00;-2.50;99.90
52709;DHT22;38606;52.986;6.980;2022-12-15T09:30:37;-2.10;99.90
52709;DHT22;38606;52.986;6.980;2022-12-15T09:35:29;-2.00;99.90
52709;DHT22;38606;52.986;6.980;2022-12-15T09:37:58;-1.90;99.90
52709;DHT22;38606;52.986;6.980;2022-12-15T09:40:24;-1.90;99.90
52709;DHT22;38606;52.986;6.980;2022-12-15T09:42:55;-1.70;99.90
52709;DHT22;38606;52.986;6.980;2022-12-15T09:45:25;-1.60;99.90
52709;DHT22;38606;52.986;6.980;2022-12-15T09:48:04;-1.40;99.90
52709;DHT22;38606;52.986;6.980;2022-12-15T09:50:36;-1.50;99.90
52709;DHT22;38606;52.986;6.980;2022-12-15T09:53:08;-1.30;99.90
52709;DHT22;38606;52.986;6.980;2022-12-15T09:55:35;-1.20;99.90
52709;DHT22;38606;52.986;6.980;2022-12-15T09:58:31;-1.30;99.90
52709;DHT22;38606;52.986;6.980;2022-12-15T10:04:23;-1.10;99.90
52709;DHT22;38606;52.986;6.980;2022-12-15T10:07:19;-1.10;99.90
52709;DHT22;38606;52.986;6.980;2022-12-15T10:09:48;-1.00;99.90
52709;DHT22;38606;52.986;6.980;2022-12-15T10:12:19;0.00;99.90
52709;DHT22;38606;52.986;6.980;2022-12-15T10:20:06;-0.40;99.90
52709;DHT22;38606;52.986;6.980;2022-12-15T10:22:37;-0.30;99.90
52709;DHT22;38606;52.986;6.980;2022-12-15T10:25:25;-0.20;99.90
52709;DHT22;38606;52.986;6.980;2022-12-15T10:30:58;-0.40;99.90
52709;DHT22;38606;52.986;6.980;2022-12-15T10:33:26;-0.30;99.90
52709;DHT22;38606;52.986;6.980;2022-12-15T10:35:54;-0.20;99.90
52709;DHT22;38606;52.986;6.980;2022-12-15T10:38:37;-0.30;99.90
52709;DHT22;38606;52.986;6.980;2022-12-15T10:41:10;-0.10;99.90
52709;DHT22;38606;52.986;6.980;2022-12-15T10:43:39;0.50;99.90
52709;DHT22;38606;52.986;6.980;2022-12-15T10:48:34;0.30;99.90
52709;DHT22;38606;52.986;6.980;2022-12-15T10:56:20;0.80;99.90
52709;DHT22;38606;52.986;6.980;2022-12-15T10:58:54;0.50;99.90
52709;DHT22;38606;52.986;6.980;2022-12-15T11:01:26;0.10;99.90
52709;DHT22;38606;52.986;6.980;2022-12-15T11:03:52;0.30;99.90
52709;DHT22;38606;52.986;6.980;2022-12-15T11:06:23;0.40;99.90
52709;DHT22;38606;52.986;6.980;2022-12-15T11:08:52;0.50;99.90
52709;DHT22;38606;52.986;6.980;2022-12-15T11:11:37;0.50;99.90
52709;DHT22;38606;52.986;6.980;2022-12-15T11:14:46;0.60;99.90
52709;DHT22;38606;52.986;6.980;2022-12-15T11:17:21;0.60;99.90
52709;DHT22;38606;52.986;6.980;2022-12-15T11:22:23;0.70;99.90
52709;DHT22;38606;52.986;6.980;2022-12-15T11:24:57;0.70;99.90
52709;DHT22;38606;52.986;6.980;2022-12-15T11:27:33;0.70;99.90
52709;DHT22;38606;52.986;6.980;2022-12-15T11:30:15;0.90;99.90
52709;DHT22;38606;52.986;6.980;2022-12-15T11:32:45;0.60;99.90
52709;DHT22;38606;52.986;6.980;2022-12-15T11:35:13;0.80;99.90
52709;DHT22;38606;52.986;6.980;2022-12-15T11:37:42;0.80;99.90
52709;DHT22;38606;52.986;6.980;2022-12-15T11:40:39;0.50;99.90
52709;DHT22;38606;52.986;6.980;2022-12-15T11:48:34;0.60;99.90
52709;DHT22;38606;52.986;6.980;2022-12-15T11:51:05;0.80;99.90
52709;DHT22;38606;52.986;6.980;2022-12-15T11:54:14;2.10;99.90
52709;DHT22;38606;52.986;6.980;2022-12-15T11:56:46;0.80;99.90
52709;DHT22;38606;52.986;6.980;2022-12-15T12:07:39;1.00;99.90
52709;DHT22;38606;52.986;6.980;2022-12-15T12:12:48;1.00;99.90
52709;DHT22;38606;52.986;6.980;2022-12-15T12:17:52;1.10;99.90
52709;DHT22;38606;52.986;6.980;2022-12-15T12:20:37;1.30;99.90
52709;DHT22;38606;52.986;6.980;2022-12-15T12:23:23;1.10;99.90
52709;DHT22;38606;52.986;6.980;2022-12-15T12:26:01;1.10;99.90
52709;DHT22;38606;52.986;6.980;2022-12-15T12:29:04;1.30;99.90
52709;DHT22;38606;52.986;6.980;2022-12-15T12:34:46;1.20;99.90
52709;DHT22;38606;52.986;6.980;2022-12-15T12:40:22;1.30;99.90
52709;DHT22;38606;52.986;6.980;2022-12-15T12:42:54;1.30;99.90
52709;DHT22;38606;52.986;6.980;2022-12-15T12:45:48;1.40;99.90
52709;DHT22;38606;52.986;6.980;2022-12-15T12:48:33;1.50;99.90
52709;DHT22;38606;52.986;6.980;2022-12-15T12:51:21;1.50;99.90
52709;DHT22;38606;52.986;6.980;2022-12-15T12:53:48;1.40;99.90
52709;DHT22;38606;52.986;6.980;2022-12-15T12:56:38;2.40;99.90
52709;DHT22;38606;52.986;6.980;2022-12-15T13:01:54;1.50;99.90
52709;DHT22;38606;52.986;6.980;2022-12-15T13:09:41;1.30;99.90
52709;DHT22;38606;52.986;6.980;2022-12-15T13:12:37;1.50;99.90
52709;DHT22;38606;52.986;6.980;2022-12-15T13:17:55;1.40;99.90
52709;DHT22;38606;52.986;6.980;2022-12-15T13:20:27;1.80;99.90
52709;DHT22;38606;52.986;6.980;2022-12-15T13:22:54;1.40;99.90
52709;DHT22;38606;52.986;6.980;2022-12-15T13:25:39;1.50;99.90
52709;DHT22;38606;52.986;6.980;2022-12-15T13:39:03;2.50;99.90
52709;DHT22;38606;52.986;6.980;2022-12-15T13:41:29;1.40;99.90
52709;DHT22;38606;52.986;6.980;2022-12-15T13:43:57;1.50;99.90
52709;DHT22;38606;52.986;6.980;2022-12-15T13:46:27;1.30;99.90
52709;DHT22;38606;52.986;6.980;2022-12-15T13:49:11;1.40;99.90
52709;DHT22;38606;52.986;6.980;2022-12-15T13:51:44;1.50;99.90
52709;DHT22;38606;52.986;6.980;2022-12-15T13:54:24;1.30;99.90
52709;DHT22;38606;52.986;6.980;2022-12-15T13:57:04;2.20;99.90
52709;DHT22;38606;52.986;6.980;2022-12-15T13:59:33;1.40;99.90
52709;DHT22;38606;52.986;6.980;2022-12-15T14:02:01;1.50;99.90
52709;DHT22;38606;52.986;6.980;2022-12-15T14:04:27;1.20;99.90
52709;DHT22;38606;52.986;6.980;2022-12-15T14:06:55;1.30;99.90
52709;DHT22;38606;52.986;6.980;2022-12-15T14:09:31;1.20;99.90
52709;DHT22;38606;52.986;6.980;2022-12-15T14:11:58;1.30;99.90
52709;DHT22;38606;52.986;6.980;2022-12-15T14:14:28;2.70;99.90
52709;DHT22;38606;52.986;6.980;2022-12-15T14:16:58;1.40;99.90
52709;DHT22;38606;52.986;6.980;2022-12-15T14:19:24;1.30;99.90
52709;DHT22;38606;52.986;6.980;2022-12-15T14:21:56;1.20;99.90
52709;DHT22;38606;52.986;6.980;2022-12-15T14:24:28;1.10;99.90
52709;DHT22;38606;52.986;6.980;2022-12-15T14:26:54;1.20;99.90
52709;DHT22;38606;52.986;6.980;2022-12-15T14:29:21;1.00;99.90
52709;DHT22;38606;52.986;6.980;2022-12-15T14:31:55;2.10;99.90
52709;DHT22;38606;52.986;6.980;2022-12-15T14:34:32;1.00;99.90
52709;DHT22;38606;52.986;6.980;2022-12-15T14:37:02;1.00;99.90
52709;DHT22;38606;52.986;6.980;2022-12-15T14:39:43;1.10;99.90
52709;DHT22;38606;52.986;6.980;2022-12-15T14:42:25;1.80;99.90
52709;DHT22;38606;52.986;6.980;2022-12-15T14:44:52;1.00;99.90
52709;DHT22;38606;52.986;6.980;2022-12-15T14:47:21;1.00;99.90
52709;DHT22;38606;52.986;6.980;2022-12-15T14:49:48;0.70;99.90
52709;DHT22;38606;52.986;6.980;2022-12-15T14:52:38;0.90;99.90
52709;DHT22;38606;52.986;6.980;2022-12-15T14:55:38;0.80;99.90
52709;DHT22;38606;52.986;6.980;2022-12-15T15:00:56;2.60;99.90
52709;DHT22;38606;52.986;6.980;2022-12-15T15:03:35;0.80;99.90
52709;DHT22;38606;52.986;6.980;2022-12-15T15:11:34;0.80;99.90
52709;DHT22;38606;52.986;6.980;2022-12-15T15:14:16;0.60;99.90
52709;DHT22;38606;52.986;6.980;2022-12-15T15:16:43;0.70;99.90
52709;DHT22;38606;52.986;6.980;2022-12-15T15:19:20;0.40;99.90
52709;DHT22;38606;52.986;6.980;2022-12-15T15:21:47;0.70;99.90
52709;DHT22;38606;52.986;6.980;2022-12-15T15:26:38;0.60;99.90
52709;DHT22;38606;52.986;6.980;2022-12-15T15:29:42;0.40;99.90
52709;DHT22;38606;52.986;6.980;2022-12-15T15:32:19;0.40;99.90
52709;DHT22;38606;52.986;6.980;2022-12-15T15:34:46;0.40;99.90
52709;DHT22;38606;52.986;6.980;2022-12-15T15:37:18;0.20;99.90
52709;DHT22;38606;52.986;6.980;2022-12-15T15:39:47;0.30;99.90
52709;DHT22;38606;52.986;6.980;2022-12-15T15:42:13;0.40;99.90
52709;DHT22;38606;52.986;6.980;2022-12-15T15:44:39;0.60;99.90
52709;DHT22;38606;52.986;6.980;2022-12-15T15:47:06;0.40;99.90
52709;DHT22;38606;52.986;6.980;2022-12-15T15:49:32;0.40;99.90
52709;DHT22;38606;52.986;6.980;2022-12-15T15:51:58;0.10;99.90
52709;DHT22;38606;52.986;6.980;2022-12-15T15:54:29;0.30;99.90
52709;DHT22;38606;52.986;6.980;2022-12-15T15:56:58;0.10;99.90
52709;DHT22;38606;52.986;6.980;2022-12-15T15:59:23;0.50;99.90
52709;DHT22;38606;52.986;6.980;2022-12-15T16:01:53;0.20;99.90
52709;DHT22;38606;52.986;6.980;2022-12-15T16:04:24;0.00;99.90
52709;DHT22;38606;52.986;6.980;2022-12-15T16:06:51;1.10;99.90
52709;DHT22;38606;52.986;6.980;2022-12-15T16:09:18;0.00;99.90
52709;DHT22;38606;52.986;6.980;2022-12-15T16:11:44;0.10;99.90
52709;DHT22;38606;52.986;6.980;2022-12-15T16:14:12;0.00;99.90
52709;DHT22;38606;52.986;6.980;2022-12-15T16:16:38;0.20;99.90
52709;DHT22;38606;52.986;6.980;2022-12-15T16:19:04;2.00;99.90
52709;DHT22;38606;52.986;6.980;2022-12-15T16:21:30;0.90;99.90
52709;DHT22;38606;52.986;6.980;2022-12-15T16:23:56;0.10;99.90
52709;DHT22;38606;52.986;6.980;2022-12-15T16:26:30;0.20;99.90
52709;DHT22;38606;52.986;6.980;2022-12-15T16:28:56;0.30;99.90
52709;DHT22;38606;52.986;6.980;2022-12-15T16:31:30;1.20;99.90
52709;DHT22;38606;52.986;6.980;2022-12-15T16:33:57;0.30;99.90
52709;DHT22;38606;52.986;6.980;2022-12-15T16:36:23;0.20;99.90
52709;DHT22;38606;52.986;6.980;2022-12-15T16:38:49;0.50;99.90
52709;DHT22;38606;52.986;6.980;2022-12-15T16:41:16;0.50;99.90
52709;DHT22;38606;52.986;6.980;2022-12-15T16:43:42;0.20;99.90
52709;DHT22;38606;52.986;6.980;2022-12-15T16:46:12;0.30;99.90
52709;DHT22;38606;52.986;6.980;2022-12-15T16:48:39;0.30;99.90
52709;DHT22;38606;52.986;6.980;2022-12-15T16:51:07;0.40;99.90
52709;DHT22;38606;52.986;6.980;2022-12-15T16:53:35;0.30;99.90
52709;DHT22;38606;52.986;6.980;2022-12-15T16:56:06;0.40;99.90
52709;DHT22;38606;52.986;6.980;2022-12-15T16:58:34;0.40;99.90
52709;DHT22;38606;52.986;6.980;2022-12-15T17:01:00;0.40;99.90
52709;DHT22;38606;52.986;6.980;2022-12-15T17:03:26;0.20;99.90
52709;DHT22;38606;52.986;6.980;2022-12-15T17:05:54;0.40;99.90
52709;DHT22;38606;52.986;6.980;2022-12-15T17:10:56;1.10;99.90
52709;DHT22;38606;52.986;6.980;2022-12-15T17:13:32;0.40;99.90
52709;DHT22;38606;52.986;6.980;2022-12-15T17:15:58;0.40;99.90
52709;DHT22;38606;52.986;6.980;2022-12-15T17:18:24;0.40;99.90
52709;DHT22;38606;52.986;6.980;2022-12-15T17:21:20;0.40;99.90
52709;DHT22;38606;52.986;6.980;2022-12-15T17:23:50;0.30;99.90
52709;DHT22;38606;52.986;6.980;2022-12-15T17:26:24;-0.90;99.90
52709;DHT22;38606;52.986;6.980;2022-12-15T17:28:51;0.30;99.90
52709;DHT22;38606;52.986;6.980;2022-12-15T17:31:19;1.30;99.90
52709;DHT22;38606;52.986;6.980;2022-12-15T17:33:46;0.40;99.90
52709;DHT22;38606;52.986;6.980;2022-12-15T17:36:22;0.40;99.90
52709;DHT22;38606;52.986;6.980;2022-12-15T17:38:52;0.40;99.90
52709;DHT22;38606;52.986;6.980;2022-12-15T17:41:18;0.60;99.90
52709;DHT22;38606;52.986;6.980;2022-12-15T17:43:44;0.50;99.90
52709;DHT22;38606;52.986;6.980;2022-12-15T17:46:10;1.70;99.90
52709;DHT22;38606;52.986;6.980;2022-12-15T17:48:35;0.50;99.90
52709;DHT22;38606;52.986;6.980;2022-12-15T17:51:01;0.40;99.90
52709;DHT22;38606;52.986;6.980;2022-12-15T17:53:27;1.30;99.90
52709;DHT22;38606;52.986;6.980;2022-12-15T17:55:53;0.50;99.90
52709;DHT22;38606;52.986;6.980;2022-12-15T17:58:21;0.40;99.90
52709;DHT22;38606;52.986;6.980;2022-12-15T18:00:49;0.50;99.90
52709;DHT22;38606;52.986;6.980;2022-12-15T18:03:16;0.50;99.90
52709;DHT22;38606;52.986;6.980;2022-12-15T18:05:42;0.60;99.90
52709;DHT22;38606;52.986;6.980;2022-12-15T18:08:23;1.10;99.90
52709;DHT22;38606;52.986;6.980;2022-12-15T18:10:51;0.50;99.90
52709;DHT22;38606;52.986;6.980;2022-12-15T18:13:24;0.50;99.90
52709;DHT22;38606;52.986;6.980;2022-12-15T18:15:51;0.50;99.90
52709;DHT22;38606;52.986;6.980;2022-12-15T18:18:18;0.50;99.90
52709;DHT22;38606;52.986;6.980;2022-12-15T18:20:45;1.00;99.90
52709;DHT22;38606;52.986;6.980;2022-12-15T18:23:20;0.50;99.90
52709;DHT22;38606;52.986;6.980;2022-12-15T18:25:47;0.30;99.90
52709;DHT22;38606;52.986;6.980;2022-12-15T18:28:20;0.40;99.90
52709;DHT22;38606;52.986;6.980;2022-12-15T18:30:51;0.20;99.90
52709;DHT22;38606;52.986;6.980;2022-12-15T18:33:18;0.70;99.90
52709;DHT22;38606;52.986;6.980;2022-12-15T18:35:48;0.10;99.90
52709;DHT22;38606;52.986;6.980;2022-12-15T18:38:19;0.30;99.90
52709;DHT22;38606;52.986;6.980;2022-12-15T18:40:47;0.20;99.90
52709;DHT22;38606;52.986;6.980;2022-12-15T18:43:15;0.30;99.90
52709;DHT22;38606;52.986;6.980;2022-12-15T18:45:42;0.00;99.90
52709;DHT22;38606;52.986;6.980;2022-12-15T18:50:47;0.30;99.90
52709;DHT22;38606;52.986;6.980;2022-12-15T18:53:18;0.10;99.90
52709;DHT22;38606;52.986;6.980;2022-12-15T18:55:46;0.40;99.90
52709;DHT22;38606;52.986;6.980;2022-12-15T18:58:30;0.10;99.90
52709;DHT22;38606;52.986;6.980;2022-12-15T19:00:57;0.10;99.90
52709;DHT22;38606;52.986;6.980;2022-12-15T19:03:24;0.20;99.90
52709;DHT22;38606;52.986;6.980;2022-12-15T19:05:54;0.10;99.90
52709;DHT22;38606;52.986;6.980;2022-12-15T19:08:23;0.00;99.90
52709;DHT22;38606;52.986;6.980;2022-12-15T19:10:52;0.30;99.90
52709;DHT22;38606;52.986;6.980;2022-12-15T19:13:22;0.10;99.90
52709;DHT22;38606;52.986;6.980;2022-12-15T19:15:49;0.20;99.90
52709;DHT22;38606;52.986;6.980;2022-12-15T19:18:16;0.40;99.90
52709;DHT22;38606;52.986;6.980;2022-12-15T19:23:56;0.20;99.90
52709;DHT22;38606;52.986;6.980;2022-12-15T19:26:22;0.50;99.90
52709;DHT22;38606;52.986;6.980;2022-12-15T19:28:48;0.40;99.90
52709;DHT22;38606;52.986;6.980;2022-12-15T19:31:13;0.80;99.90
52709;DHT22;38606;52.986;6.980;2022-12-15T19:33:39;1.00;99.90
52709;DHT22;38606;52.986;6.980;2022-12-15T19:36:20;0.20;99.90
52709;DHT22;38606;52.986;6.980;2022-12-15T19:38:53;0.10;99.90
52709;DHT22;38606;52.986;6.980;2022-12-15T19:41:19;0.20;99.90
52709;DHT22;38606;52.986;6.980;2022-12-15T19:43:45;0.30;99.90
52709;DHT22;38606;52.986;6.980;2022-12-15T19:46:13;0.00;99.90
52709;DHT22;38606;52.986;6.980;2022-12-15T19:48:39;1.10;99.90
52709;DHT22;38606;52.986;6.980;2022-12-15T19:51:17;0.30;99.90
52709;DHT22;38606;52.986;6.980;2022-12-15T19:53:45;0.00;99.90
52709;DHT22;38606;52.986;6.980;2022-12-15T19:56:18;-0.10;99.90
52709;DHT22;38606;52.986;6.980;2022-12-15T19:58:44;0.30;99.90
52709;DHT22;38606;52.986;6.980;2022-12-15T20:01:12;0.00;99.90
52709;DHT22;38606;52.986;6.980;2022-12-15T20:03:44;0.00;99.90
52709;DHT22;38606;52.986;6.980;2022-12-15T20:06:22;0.70;99.90
52709;DHT22;38606;52.986;6.980;2022-12-15T20:08:51;1.10;99.90
52709;DHT22;38606;52.986;6.980;2022-12-15T20:11:23;1.50;99.90
52709;DHT22;38606;52.986;6.980;2022-12-15T20:13:49;-0.10;99.90
52709;DHT22;38606;52.986;6.980;2022-12-15T20:16:16;-0.30;99.90
52709;DHT22;38606;52.986;6.980;2022-12-15T20:18:49;0.00;99.90
52709;DHT22;38606;52.986;6.980;2022-12-15T20:21:16;0.00;99.90
52709;DHT22;38606;52.986;6.980;2022-12-15T20:26:33;-0.20;99.90
52709;DHT22;38606;52.986;6.980;2022-12-15T20:29:00;-0.20;99.90
52709;DHT22;38606;52.986;6.980;2022-12-15T20:31:26;-0.10;99.90
52709;DHT22;38606;52.986;6.980;2022-12-15T20:33:52;0.00;99.90
52709;DHT22;38606;52.986;6.980;2022-12-15T20:36:26;-0.10;99.90
52709;DHT22;38606;52.986;6.980;2022-12-15T20:38:52;0.00;99.90
52709;DHT22;38606;52.986;6.980;2022-12-15T20:41:25;0.20;99.90
52709;DHT22;38606;52.986;6.980;2022-12-15T20:43:51;1.20;99.90
52709;DHT22;38606;52.986;6.980;2022-12-15T20:46:26;0.20;99.90
52709;DHT22;38606;52.986;6.980;2022-12-15T20:48:54;0.10;99.90
52709;DHT22;38606;52.986;6.980;2022-12-15T20:51:24;0.10;99.90
52709;DHT22;38606;52.986;6.980;2022-12-15T20:53:52;0.30;99.90
52709;DHT22;38606;52.986;6.980;2022-12-15T20:56:19;0.10;99.90
52709;DHT22;38606;52.986;6.980;2022-12-15T20:58:46;0.10;99.90
52709;DHT22;38606;52.986;6.980;2022-12-15T21:01:22;1.20;99.90
52709;DHT22;38606;52.986;6.980;2022-12-15T21:03:53;0.10;99.90
52709;DHT22;38606;52.986;6.980;2022-12-15T21:06:19;0.10;99.90
52709;DHT22;38606;52.986;6.980;2022-12-15T21:08:44;0.80;99.90
52709;DHT22;38606;52.986;6.980;2022-12-15T21:13:41;0.10;99.90
52709;DHT22;38606;52.986;6.980;2022-12-15T21:16:13;1.00;99.90
52709;DHT22;38606;52.986;6.980;2022-12-15T21:18:40;0.20;99.90
52709;DHT22;38606;52.986;6.980;2022-12-15T21:21:14;0.20;99.90
52709;DHT22;38606;52.986;6.980;2022-12-15T21:23:40;1.00;99.90
52709;DHT22;38606;52.986;6.980;2022-12-15T21:26:08;0.00;99.90
52709;DHT22;38606;52.986;6.980;2022-12-15T21:28:34;-0.10;99.90
52709;DHT22;38606;52.986;6.980;2022-12-15T21:31:00;1.10;99.90
52709;DHT22;38606;52.986;6.980;2022-12-15T21:33:26;-0.30;99.90
52709;DHT22;38606;52.986;6.980;2022-12-15T21:35:51;-0.30;99.90
52709;DHT22;38606;52.986;6.980;2022-12-15T21:38:30;-0.40;99.90
52709;DHT22;38606;52.986;6.980;2022-12-15T21:41:03;-0.30;99.90
52709;DHT22;38606;52.986;6.980;2022-12-15T21:43:31;0.50;99.90
52709;DHT22;38606;52.986;6.980;2022-12-15T21:45:58;-0.60;99.90
52709;DHT22;38606;52.986;6.980;2022-12-15T21:48:24;-0.50;99.90
52709;DHT22;38606;52.986;6.980;2022-12-15T21:51:12;-0.40;99.90
52709;DHT22;38606;52.986;6.980;2022-12-15T21:53:39;-0.50;99.90
52709;DHT22;38606;52.986;6.980;2022-12-15T21:56:05;-0.40;99.90
52709;DHT22;38606;52.986;6.980;2022-12-15T21:58:31;-0.40;99.90
52709;DHT22;38606;52.986;6.980;2022-12-15T22:00:59;-0.50;99.90
52709;DHT22;38606;52.986;6.980;2022-12-15T22:03:25;-0.50;99.90
52709;DHT22;38606;52.986;6.980;2022-12-15T22:05:50;-0.60;99.90
52709;DHT22;38606;52.986;6.980;2022-12-15T22:08:19;-0.60;99.90
52709;DHT22;38606;52.986;6.980;2022-12-15T22:10:47;-0.50;99.90
52709;DHT22;38606;52.986;6.980;2022-12-15T22:13:18;-0.20;99.90
52709;DHT22;38606;52.986;6.980;2022-12-15T22:15:46;-0.40;99.90
52709;DHT22;38606;52.986;6.980;2022-12-15T22:18:14;-0.50;99.90
52709;DHT22;38606;52.986;6.980;2022-12-15T22:20:48;-0.50;99.90
52709;DHT22;38606;52.986;6.980;2022-12-15T22:23:18;-0.50;99.90
52709;DHT22;38606;52.986;6.980;2022-12-15T22:25:51;1.40;99.90
52709;DHT22;38606;52.986;6.980;2022-12-15T22:28:24;-0.50;99.90
52709;DHT22;38606;52.986;6.980;2022-12-15T22:30:51;-0.40;99.90
52709;DHT22;38606;52.986;6.980;2022-12-15T22:33:19;-0.40;99.90
52709;DHT22;38606;52.986;6.980;2022-12-15T22:35:51;-0.20;99.90
52709;DHT22;38606;52.986;6.980;2022-12-15T22:38:18;1.40;99.90
52709;DHT22;38606;52.986;6.980;2022-12-15T22:40:46;-0.30;99.90
52709;DHT22;38606;52.986;6.980;2022-12-15T22:43:31;0.70;99.90
52709;DHT22;38606;52.986;6.980;2022-12-15T22:45:59;-0.40;99.90
52709;DHT22;38606;52.986;6.980;2022-12-15T22:48:30;-0.20;99.90
52709;DHT22;38606;52.986;6.980;2022-12-15T22:50:58;-0.20;99.90
52709;DHT22;38606;52.986;6.980;2022-12-15T22:53:26;-0.10;99.90
52709;DHT22;38606;52.986;6.980;2022-12-15T22:55:54;0.80;99.90
52709;DHT22;38606;52.986;6.980;2022-12-15T22:58:35;-0.30;99.90
52709;DHT22;38606;52.986;6.980;2022-12-15T23:01:03;-0.20;99.90
52709;DHT22;38606;52.986;6.980;2022-12-15T23:03:31;-0.30;99.90
52709;DHT22;38606;52.986;6.980;2022-12-15T23:05:59;-0.30;99.90
52709;DHT22;38606;52.986;6.980;2022-12-15T23:08:27;0.40;99.90
52709;DHT22;38606;52.986;6.980;2022-12-15T23:10:52;-0.10;99.90
52709;DHT22;38606;52.986;6.980;2022-12-15T23:13:37;0.50;99.90
52709;DHT22;38606;52.986;6.980;2022-12-15T23:16:03;-0.20;99.90